AirNav   Air Wisconsin Up To $57,000 Bonus
 
 1453 users online  

29FL Halifax Hospital Medical Center Heliport
Daytona Beach, Florida, USA

GOING TO DAYTONA BEACH?


FAA INFORMATION EFFECTIVE 05 DECEMBER 2019

Location

FAA Identifier: 29FL
Lat/Long: 29-12-04.9330N 081-03-14.2020W
29-12.082217N 081-03.236700W
29.2013703,-81.0539450
(estimated)
Elevation: 46 ft. / 14 m (estimated)
Variation: 03W (1985)
Time zone: UTC -5 (UTC -4 during Daylight Saving Time)
Zip code: 32114

Heliport Operations

Heliport use: Private use, MEDICAL.
Activation date: 01/1981
Control tower: no
ARTCC: JACKSONVILLE CENTER
FSS: SAINT PETERSBURG FLIGHT SERVICE STATION
Attendance: UNATNDD
Wind indicator: yes
Segmented circle: no

Heliport Communications

WX ASOS at DAB (1.3 nm S): PHONE 386-253-7469
WX AWOS-3 at OMN (7 nm NW): 118.475 (386-615-7084)
WX AWOS-3 at EVB (10 nm SE): 124.625 (386-409-4705)
WX AWOS-3 at DED (14 nm SW): 119.575 (386-740-5811)
WX AWOS-3 at FIN (18 nm NW): 128.325 (386-437-7334)

Nearby radio navigation aids

VOR radial/distance  VOR name  Freq  Var
OMNr153/6.8ORMOND BEACH VORTAC112.6000E

Heliport Services

Runway Information

Helipad H1

Dimensions: 50 x 50 ft. / 15 x 15 m
Surface: concrete, in fair condition
Latitude: 29-12.082217N
Longitude: 081-03.236700W
Elevation: 46.0 ft.
Traffic pattern: leftleft
Markings: none, in fair condition

Heliport Ownership and Management from official FAA records

Ownership: Privately-owned
Owner: HALIFAX HOSPITAL MED CNTR
303 N CLYDE MORRIS BLVD
DAYTONA BEACH, FL 32114
Phone (386) 425-4000
Manager: DONALD R. BARNETT
303 N CLYDE MORRIS BLVD
DAYTONA BEACH, FL 32114
Phone (386) 425-4832

Additional Remarks

FOR CD CTC DAYTONA APCH AT 386-226-3939.

Instrument Procedures

There are no published instrument procedures at 29FL.

Some nearby airports with instrument procedures:

KDAB - Daytona Beach International Airport (1 nm S)
KOMN - Ormond Beach Municipal Airport (7 nm NW)
KEVB - New Smyrna Beach Municipal Airport (10 nm SE)
KDED - DeLand Municipal Airport-Sidney H Taylor Field (14 nm SW)
X50 - Massey Ranch Airpark (15 nm SE)
KFIN - Flagler Executive Airport (18 nm NW)
 
Loc | Ops | Rwys | IFR | FBO | Links
Com | Nav | Svcs | Stats | Notes
Area around 29FL (Halifax Hospital Medical Center Heliport)
 
Road maps at: MapQuest Bing Google
 
Aerial photo
WARNING: Photo may not be current or correct
Aerial photo of 29FL (Halifax Hospital Medical Center Heliport)
Taken in July 2009
looking northeast.

Do you have a better or more recent aerial photo of Halifax Hospital Medical Center Heliport that you would like to share? If so, please send us your photo.

 
Sectional chart

 
Airport distance calculator
Flying to Halifax Hospital Medical Center Heliport? Find the distance to fly.

From to 29FL

Sunrise and sunset
Times for 05-Dec-2019
 Local
(UTC-5)
 Zulu
(UTC)
Morning civil twilight06:3911:39
Sunrise07:0512:05
Sunset17:2522:25
Evening civil twilight17:5122:51

Current date and time
Zulu (UTC)  05-Dec-2019 17:50:33
Local (UTC-5)  05-Dec-2019 12:50:33
 
METAR
KDAB 051653Z 34008KT 10SM FEW200 19/03 A3013 RMK AO2 SLP203 T01940028
KOMN 
7nm NW 
051550Z 28004KT 10SM CLR 17/07 A3014
KEVB 
10nm SE 
051647Z 36006KT 10SM CLR 18/07 A3014
KDED 
14nm SW 
051735Z AUTO 02006KT 10SM CLR 19/03 A3011 RMK AO2
KFIN 
18nm NW 
051650Z 36007KT 7SM CLR 18/01 A3013
TAF
KDAB 051125Z 0512/0612 VRB04KT P6SM FEW250 FM051500 02008KT P6SM SCT250 FM060000 VRB02KT P6SM SCT250
NOTAMs
Click for the latest NOTAMs
NOTAMs are issued by the DoD/FAA and will open in a separate window not controlled by AirNav.

 

 
 

Would you like to see your business listed on this page?

 If your business provides an interesting product or service to pilots, flight crews, aircraft, or users of the Halifax Hospital Medical Center Heliport, you should consider listing it here.  To start the listing process, click on the button below
 
Add a business
 

Other Pages about Halifax Hospital Medical Center Heliport

Update a link
 
Copyright © AirNav, LLC. All rights reserved. Privacy Policy  Contact